Time;durP1;ratioP1;P1;durP2;ratioP2;P2;SDS_P1;SDS_P2;PMS_P1;PMS_P2;Temp;Humidity;BMP_temperature;BMP_pressure;BME280_temperature;BME280_humidity;BME280_pressure;Samples;Min_cycle;Max_cycle;Signal;HPM_P1;HPM_P2
2021/09/27 00:02:22;;;;;;;5.80;1.90;;;;;;;7.17;82.17;99533.33;112440;1192;72591;-22
2021/09/27 00:04:51;;;;;;;3.80;1.10;;;;;;;7.04;81.80;99539.28;112455;1193;73548;-23
2021/09/27 00:07:19;;;;;;;3.70;1.40;;;;;;;7.51;79.98;99539.58;112407;1193;73874;-24
2021/09/27 00:09:48;;;;;;;6.80;1.90;;;;;;;8.02;77.39;99539.92;112320;1193;61595;-22
2021/09/27 00:12:30;;;;;;;3.70;1.70;;;;;;;8.00;77.52;99544.86;111817;1196;61194;-22
2021/09/27 00:14:58;;;;;;;3.90;1.70;;;;;;;7.79;77.98;99544.09;111941;1195;72926;-22
2021/09/27 00:17:26;;;;;;;3.50;1.60;;;;;;;7.55;78.10;99545.02;111719;1197;75642;-23
2021/09/27 00:19:55;;;;;;;3.10;1.30;;;;;;;7.31;77.91;99544.21;111787;1196;73847;-22
2021/09/27 00:22:23;;;;;;;3.10;1.30;;;;;;;7.09;78.57;99536.86;111932;1186;63123;-22
2021/09/27 00:24:52;;;;;;;4.10;1.40;;;;;;;7.48;78.40;99541.66;111881;1196;61005;-22
2021/09/27 00:27:34;;;;;;;3.30;1.20;;;;;;;8.02;77.11;99542.55;111580;1196;75063;-22
2021/09/27 00:30:04;;;;;;;3.10;1.30;;;;;;;8.00;75.87;99546.83;111630;1197;74668;-22
2021/09/27 00:32:32;;;;;;;4.20;1.70;;;;;;;7.69;74.61;99550.58;111523;1198;74133;-22
2021/09/27 00:35:00;;;;;;;2.30;1.60;;;;;;;7.29;75.73;99548.47;111645;1197;60864;-22
2021/09/27 00:37:28;;;;;;;3.20;1.60;;;;;;;6.98;77.19;99549.29;111683;1197;60806;-22
2021/09/27 00:40:02;;;;;;;4.20;1.30;;;;;;;6.75;78.42;99545.61;111685;1197;72007;-22
2021/09/27 00:42:30;;;;;;;2.20;1.30;;;;;;;7.14;78.67;99546.97;111596;1196;75556;-22
2021/09/27 00:44:58;;;;;;;3.20;1.80;;;;;;;7.62;77.17;99544.94;111991;1195;73129;-22
2021/09/27 00:47:27;;;;;;;4.70;1.90;;;;;;;7.64;76.56;99546.94;112055;1193;60812;-22
2021/09/27 00:49:55;;;;;;;3.50;1.40;;;;;;;7.41;76.56;99547.64;112049;1193;60807;-22
2021/09/27 00:52:25;;;;;;;4.30;2.30;;;;;;;7.05;76.33;99542.29;111998;1196;74169;-22
2021/09/27 00:54:57;;;;;;;5.00;1.50;;;;;;;6.72;77.08;99544.88;111964;1193;74635;-22
2021/09/27 00:57:28;;;;;;;3.40;1.50;;;;;;;6.45;78.20;99546.27;112024;1195;73475;-22
2021/09/27 00:59:57;;;;;;;3.00;1.10;;;;;;;6.72;77.67;99541.99;112425;1193;60832;-21
2021/09/27 01:02:25;;;;;;;5.10;1.70;;;;;;;7.10;75.18;99548.21;112476;1193;61395;-22
2021/09/27 01:04:54;;;;;;;5.00;1.90;;;;;;;7.01;75.38;99549.94;112531;1194;73935;-23
2021/09/27 01:07:27;;;;;;;3.40;1.60;;;;;;;6.75;75.67;99547.63;112435;1192;75515;-23
2021/09/27 01:10:18;;;;;;;3.40;1.70;;;;;;;6.45;76.52;99553.66;112183;1193;74078;-23
2021/09/27 01:12:52;;;;;;;4.00;1.50;;;;;;;6.07;77.41;99557.48;112277;1193;61406;-23
2021/09/27 01:15:30;;;;;;;1.70;0.70;;;;;;;5.76;78.96;99560.79;112451;1194;62081;-23
2021/09/27 01:17:59;;;;;;;2.50;0.80;;;;;;;6.18;78.55;99557.73;112437;1192;73954;-22
2021/09/27 01:20:53;;;;;;;1.20;1.00;;;;;;;6.70;77.29;99557.44;112364;1193;74371;-22
2021/09/27 01:23:57;;;;;;;1.90;1.00;;;;;;;6.67;76.39;99556.91;112441;1191;73072;-22
2021/09/27 01:27:11;;;;;;;1.40;0.80;;;;;;;6.36;77.03;99560.72;112334;1193;60956;-22
2021/09/27 01:29:47;;;;;;;2.10;1.10;;;;;;;5.99;78.68;99560.27;112187;1192;61020;-22
2021/09/27 01:32:28;;;;;;;1.00;0.90;;;;;;;5.72;79.94;99561.72;112163;1193;75299;-22
2021/09/27 01:35:16;;;;;;;1.00;0.70;;;;;;;5.50;80.12;99558.36;112435;1192;75609;-22
2021/09/27 01:38:11;;;;;;;1.00;0.60;;;;;;;6.05;78.37;99552.19;112184;1193;73039;-22
2021/09/27 01:41:17;;;;;;;1.20;1.00;;;;;;;6.47;76.84;99553.92;112106;1193;60941;-22
2021/09/27 01:43:51;;;;;;;0.90;0.60;;;;;;;6.32;77.07;99556.30;112419;1193;62518;-22
2021/09/27 01:46:31;;;;;;;0.40;0.40;;;;;;;6.09;78.09;99562.70;112054;1193;75159;-22
2021/09/27 01:49:06;;;;;;;0.50;0.50;;;;;;;5.82;79.30;99560.33;112138;1193;75640;-23
2021/09/27 01:51:44;;;;;;;0.80;0.60;;;;;;;5.52;79.86;99563.44;112143;1194;74045;-22
2021/09/27 01:54:20;;;;;;;0.70;0.60;;;;;;;5.22;80.27;99556.20;112067;1193;61380;-22
2021/09/27 01:57:24;;;;;;;1.10;0.50;;;;;;;5.67;78.76;99557.30;112139;1193;60836;-22
2021/09/27 02:00:07;;;;;;;3.10;0.90;;;;;;;6.13;76.61;99555.94;112129;1193;75352;-22
2021/09/27 02:03:00;;;;;;;2.50;1.30;;;;;;;6.00;75.81;99556.79;112159;1193;75666;-22
2021/09/27 02:06:11;;;;;;;1.10;1.00;;;;;;;5.71;76.62;99554.85;112067;1193;73996;-22
2021/09/27 02:08:58;;;;;;;1.90;1.30;;;;;;;5.29;77.02;99557.38;111976;1193;61125;-22
2021/09/27 02:11:32;;;;;;;2.40;1.10;;;;;;;4.96;78.00;99560.43;112105;1193;60902;-22
2021/09/27 02:14:29;;;;;;;3.00;0.90;;;;;;;4.76;79.56;99562.07;112157;1194;75280;-23
2021/09/27 02:17:05;;;;;;;2.10;1.20;;;;;;;5.35;79.70;99562.57;112192;1192;74706;-22
2021/09/27 02:19:40;;;;;;;3.10;1.10;;;;;;;5.86;78.01;99568.90;112079;1193;73076;-22
2021/09/27 02:22:21;;;;;;;2.40;1.10;;;;;;;5.84;77.63;99572.28;112086;1192;61829;-22
2021/09/27 02:24:53;;;;;;;1.20;0.90;;;;;;;5.64;77.93;99573.52;112120;1193;60719;-22
2021/09/27 02:27:24;;;;;;;1.80;1.10;;;;;;;5.38;78.35;99573.84;112068;1193;75218;-22
2021/09/27 02:29:52;;;;;;;0.70;0.60;;;;;;;5.12;78.48;99573.23;112119;1193;74556;-22
2021/09/27 02:32:26;;;;;;;1.90;0.90;;;;;;;4.88;78.64;99574.21;112074;1194;73889;-22
2021/09/27 02:35:19;;;;;;;2.80;1.20;;;;;;;5.30;78.95;99579.39;112127;1193;61859;-23
2021/09/27 02:38:02;;;;;;;1.30;1.20;;;;;;;5.86;77.81;99580.80;112153;1193;61653;-21
2021/09/27 02:40:42;;;;;;;1.50;1.00;;;;;;;5.82;76.92;99580.69;111930;1197;74299;-22
2021/09/27 02:43:11;;;;;;;2.30;1.40;;;;;;;5.49;78.12;99578.73;112095;1193;74914;-24
2021/09/27 02:45:41;;;;;;;4.20;2.00;;;;;;;5.14;80.51;99581.92;112327;1193;74207;-23
2021/09/27 02:48:13;;;;;;;2.80;1.80;;;;;;;4.84;82.73;99584.22;112387;1193;60838;-24
2021/09/27 02:50:43;;;;;;;3.30;1.20;;;;;;;4.67;84.97;99585.44;112404;1187;61344;-23
2021/09/27 02:53:12;;;;;;;3.20;1.60;;;;;;;5.26;82.55;99580.28;112381;1193;75004;-23
2021/09/27 02:55:49;;;;;;;5.10;2.00;;;;;;;5.89;78.75;99583.92;112204;1193;75245;-24
2021/09/27 02:58:26;;;;;;;8.70;3.30;;;;;;;5.93;77.05;99589.02;112460;1193;73074;-23
2021/09/27 03:01:33;;;;;;;11.40;4.10;;;;;;;5.68;77.24;99597.95;112102;1193;61776;-22
2021/09/27 03:04:49;;;;;;;17.40;6.10;;;;;;;5.33;77.75;99602.11;112486;1193;60749;-23
2021/09/27 03:07:29;;;;;;;20.60;6.30;;;;;;;4.98;79.42;99599.71;111717;1196;74206;-22
2021/09/27 03:10:50;;;;;;;10.20;3.10;;;;;;;4.79;79.54;99602.52;111771;1196;75857;-22
2021/09/27 03:13:52;;;;;;;15.20;6.10;;;;;;;5.54;78.38;99595.19;111612;1197;71477;-22
2021/09/27 03:16:54;;;;;;;15.70;4.40;;;;;;;5.93;76.69;99598.01;111513;1199;61554;-22
2021/09/27 03:19:44;;;;;;;8.60;3.50;;;;;;;5.75;76.19;99597.05;111641;1197;60979;-22
2021/09/27 03:22:32;;;;;;;12.10;3.70;;;;;;;5.42;75.87;99596.84;111616;1200;74276;-22
2021/09/27 03:25:50;;;;;;;9.90;4.30;;;;;;;5.04;76.90;99595.65;111617;1198;76147;-22
2021/09/27 03:28:33;;;;;;;11.90;5.50;;;;;;;4.63;78.27;99601.08;111572;1196;73730;-22
2021/09/27 03:31:22;;;;;;;8.60;2.80;;;;;;;4.40;78.81;99599.23;111453;1199;61035;-22
2021/09/27 03:34:06;;;;;;;12.80;5.40;;;;;;;5.00;78.89;99596.34;111669;1197;60863;-22
2021/09/27 03:36:43;;;;;;;10.10;4.80;;;;;;;5.48;77.77;99596.55;111567;1196;75423;-22
2021/09/27 03:39:37;;;;;;;10.10;4.60;;;;;;;5.42;76.64;99595.13;111625;1196;75449;-22
2021/09/27 03:42:32;;;;;;;12.00;5.00;;;;;;;5.08;77.79;99597.18;111603;1199;72661;-22
2021/09/27 03:45:22;;;;;;;10.50;5.50;;;;;;;4.76;78.13;99600.27;111702;1196;61137;-22
2021/09/27 03:48:18;;;;;;;7.80;4.00;;;;;;;4.49;78.11;99600.52;112021;1193;60696;-22
2021/09/27 03:50:59;;;;;;;4.90;2.10;;;;;;;4.28;78.52;99598.21;112079;1195;74919;-22
2021/09/27 03:53:43;;;;;;;8.70;3.20;;;;;;;4.92;77.94;99600.36;112052;1195;75780;-22
2021/09/27 03:56:35;;;;;;;13.10;4.90;;;;;;;5.41;76.11;99600.19;111780;1197;74079;-22
2021/09/27 03:59:30;;;;;;;7.00;2.90;;;;;;;5.35;75.86;99604.25;112095;1193;61052;-23
2021/09/27 04:02:05;;;;;;;7.70;3.70;;;;;;;5.03;75.57;99603.97;112237;1192;60924;-23
2021/09/27 04:04:59;;;;;;;8.70;4.20;;;;;;;4.69;76.83;99605.62;112353;1193;74363;-22
2021/09/27 04:07:53;;;;;;;7.40;4.70;;;;;;;4.20;81.34;99610.47;112342;1193;74317;-22
2021/09/27 04:10:24;;;;;;;9.00;1.70;;;;;;;3.99;83.06;99609.35;112185;1193;72433;-19
2021/09/27 04:13:05;;;;;;;4.40;2.40;;;;;;;4.63;80.93;99608.44;112319;1192;61478;-22
2021/09/27 04:15:47;;;;;;;10.30;3.50;;;;;;;5.29;77.12;99606.98;112387;1192;61491;-22
2021/09/27 04:18:41;;;;;;;9.00;3.00;;;;;;;5.28;76.22;99607.55;112358;1193;75322;-19
2021/09/27 04:21:30;;;;;;;4.20;2.90;;;;;;;4.94;77.86;99601.46;112365;1192;73030;-25
2021/09/27 04:24:20;;;;;;;6.10;3.00;;;;;;;4.69;77.86;99605.08;112345;1193;72910;-27
2021/09/27 04:26:57;;;;;;;4.90;3.20;;;;;;;4.46;78.12;99609.63;112398;1193;60859;-24
2021/09/27 04:29:51;;;;;;;12.50;4.20;;;;;;;4.31;78.89;99612.90;112383;1192;61455;-24
2021/09/27 04:32:43;;;;;;;31.10;12.10;;;;;;;4.98;78.86;99605.57;112409;1193;74277;-23
2021/09/27 04:35:31;;;;;;;15.00;8.00;;;;;;;5.59;77.02;99605.27;112107;1193;74704;-24
2021/09/27 04:38:01;;;;;;;23.60;11.30;;;;;;;5.58;77.76;99604.64;112149;1193;73066;-26
2021/09/27 04:44:27;;;;;;;12.90;8.10;;;;;;;5.37;77.35;99613.78;112486;1193;60857;-25
2021/09/27 04:47:12;;;;;;;10.20;7.30;;;;;;;5.30;77.76;99611.42;112244;1193;74944;-24
2021/09/27 04:50:20;;;;;;;7.80;4.50;;;;;;;5.31;79.77;99610.33;112446;1192;75699;-22
2021/09/27 04:52:57;;;;;;;13.00;7.30;;;;;;;6.22;77.60;99614.37;112369;1177;74167;-22
2021/09/27 04:56:10;;;;;;;13.00;7.70;;;;;;;6.81;74.80;99618.08;112406;1193;60909;-22
2021/09/27 04:58:47;;;;;;;18.30;11.50;;;;;;;6.95;74.00;99620.03;111869;1195;61556;-23
2021/09/27 05:01:54;;;;;;;17.30;11.60;;;;;;;6.86;74.34;99615.55;111751;1196;73994;-22
2021/09/27 05:04:44;;;;;;;15.40;8.90;;;;;;;6.77;75.22;99620.19;111422;1200;75071;-22
2021/09/27 05:07:34;;;;;;;16.90;8.70;;;;;;;6.75;75.42;99625.84;111415;1200;72124;-22
2021/09/27 05:10:26;;;;;;;17.00;9.00;;;;;;;6.76;75.17;99627.85;111368;1200;60825;-22
2021/09/27 05:12:57;;;;;;;15.40;6.50;;;;;;;6.88;75.51;99627.38;111413;1199;60873;-22
2021/09/27 05:15:31;;;;;;;17.00;7.80;;;;;;;7.72;74.23;99625.41;111320;1200;74974;-23
2021/09/27 05:18:10;;;;;;;20.30;12.50;;;;;;;8.53;72.40;99632.58;111236;1200;75542;-22
2021/09/27 05:21:16;;;;;;;21.70;9.90;;;;;;;8.41;71.92;99632.09;111221;1203;73899;-22
2021/09/27 05:23:49;;;;;;;43.10;20.60;;;;;;;7.25;76.35;99635.58;111266;1200;61115;-22
2021/09/27 05:26:47;;;;;;;45.60;19.50;;;;;;;6.87;78.11;99644.65;111354;1200;60851;-22
2021/09/27 05:29:22;;;;;;;41.10;17.60;;;;;;;6.56;80.48;99641.73;111372;1200;74232;-22
2021/09/27 05:32:12;;;;;;;21.50;8.80;;;;;;;6.51;81.29;99643.57;111422;1200;74739;-23
2021/09/27 05:34:56;;;;;;;30.70;11.30;;;;;;;7.21;80.02;99640.30;111462;1199;73845;-23
2021/09/27 05:37:46;;;;;;;21.00;8.00;;;;;;;7.56;78.44;99641.40;111611;1196;61020;-23
2021/09/27 05:40:20;;;;;;;16.40;7.40;;;;;;;7.41;79.46;99640.20;111799;1193;61948;-23
2021/09/27 05:43:15;;;;;;;45.20;15.70;;;;;;;7.45;79.71;99640.32;112407;1193;73924;-23
2021/09/27 05:46:41;;;;;;;31.30;10.60;;;;;;;7.33;80.75;99637.55;112371;1192;75927;-23
2021/09/27 05:49:51;;;;;;;43.90;13.60;;;;;;;7.36;81.56;99632.56;112479;1192;75205;-23
2021/09/27 05:53:08;;;;;;;30.50;11.00;;;;;;;8.20;78.18;99636.84;112291;1193;63050;-23
2021/09/27 05:55:50;;;;;;;14.40;6.50;;;;;;;8.75;76.67;99638.84;112080;1193;61679;-23
2021/09/27 05:58:33;;;;;;;5.80;3.30;;;;;;;8.61;76.70;99639.48;112214;1192;74979;-23
2021/09/27 06:01:13;;;;;;;7.10;2.50;;;;;;;8.45;77.59;99640.20;112234;1193;75642;-23
2021/09/27 06:04:05;;;;;;;7.00;2.80;;;;;;;8.54;77.25;99641.00;112381;1193;73180;-23
2021/09/27 06:06:38;;;;;;;3.70;2.00;;;;;;;8.41;77.68;99636.77;112210;1193;62153;-23
2021/09/27 06:09:39;;;;;;;4.70;1.80;;;;;;;8.90;76.35;99635.23;112187;1192;61626;-23
2021/09/27 06:12:10;;;;;;;4.30;2.10;;;;;;;9.23;74.89;99636.04;112445;1192;75238;-23
2021/09/27 06:14:38;;;;;;;4.00;2.40;;;;;;;9.40;74.24;99637.35;112152;1193;74490;-23
2021/09/27 06:17:29;;;;;;;4.70;2.20;;;;;;;9.36;74.39;99638.11;112147;1193;73950;-23
2021/09/27 06:20:46;;;;;;;5.50;2.60;;;;;;;9.11;76.07;99639.07;112387;1191;61880;-22
2021/09/27 06:23:42;;;;;;;5.40;2.20;;;;;;;9.10;76.52;99642.27;112192;1193;60865;-22
2021/09/27 06:26:12;;;;;;;2.30;1.30;;;;;;;8.80;77.14;99644.55;112351;1192;75048;-22
2021/09/27 06:28:51;;;;;;;1.80;1.40;;;;;;;9.28;75.07;99643.34;112117;1193;73734;-22
2021/09/27 06:31:32;;;;;;;4.10;2.00;;;;;;;9.47;74.55;99642.10;112169;1193;70492;-22
2021/09/27 06:34:21;;;;;;;3.80;1.50;;;;;;;9.54;75.20;99646.61;112453;1192;60799;-22
2021/09/27 06:36:50;;;;;;;2.30;1.40;;;;;;;9.59;74.91;99647.17;112431;1193;61809;-22
2021/09/27 06:39:23;;;;;;;6.20;2.00;;;;;;;9.63;74.36;99650.17;112436;1193;75314;-22
2021/09/27 06:41:52;;;;;;;2.10;1.20;;;;;;;9.64;75.11;99651.17;112440;1192;75952;-22
2021/09/27 06:44:22;;;;;;;2.40;1.40;;;;;;;9.76;73.95;99649.13;112381;1192;73983;-22
2021/09/27 06:46:51;;;;;;;3.10;1.40;;;;;;;10.47;72.00;99649.15;112350;1192;61582;-22
2021/09/27 06:49:20;;;;;;;1.90;1.50;;;;;;;10.81;69.83;99647.05;112133;1193;60899;-22
2021/09/27 06:51:48;;;;;;;2.20;1.50;;;;;;;10.70;70.34;99649.41;112192;1186;75271;-22
2021/09/27 06:54:18;;;;;;;2.20;1.40;;;;;;;10.65;70.76;99651.48;112260;1193;75857;-22
2021/09/27 06:56:47;;;;;;;3.60;1.70;;;;;;;10.58;70.82;99654.97;112130;1193;73443;-22
2021/09/27 06:59:16;;;;;;;3.10;1.90;;;;;;;10.43;71.49;99653.75;112173;1192;61802;-22
2021/09/27 07:01:45;;;;;;;2.80;1.40;;;;;;;10.27;72.48;99651.39;112054;1193;62221;-23
2021/09/27 07:04:13;;;;;;;1.90;0.80;;;;;;;10.33;72.53;99653.92;112104;1193;75272;-23
2021/09/27 07:06:42;;;;;;;3.20;1.10;;;;;;;11.20;70.31;99652.53;112241;1193;74660;-23
2021/09/27 07:09:11;;;;;;;1.90;1.60;;;;;;;11.65;67.91;99655.08;112145;1187;74083;-23
2021/09/27 07:11:40;;;;;;;3.30;1.20;;;;;;;11.66;68.27;99659.36;112086;1193;60972;-23
2021/09/27 07:14:08;;;;;;;2.10;1.10;;;;;;;11.70;68.54;99654.90;112101;1193;60941;-23
2021/09/27 07:16:37;;;;;;;3.70;1.90;;;;;;;11.67;68.43;99653.55;112290;1193;75226;-23
2021/09/27 07:19:05;;;;;;;1.50;0.90;;;;;;;11.61;69.16;99653.69;112243;1192;75607;-23
2021/09/27 07:21:34;;;;;;;1.80;1.00;;;;;;;11.62;68.52;99650.10;112282;1192;73920;-23
2021/09/27 07:24:03;;;;;;;2.00;1.20;;;;;;;11.51;69.35;99654.38;112177;1193;61460;-23
2021/09/27 07:26:32;;;;;;;1.90;1.20;;;;;;;11.06;70.47;99655.96;112143;1193;60848;-24
2021/09/27 07:29:02;;;;;;;3.20;1.70;;;;;;;11.41;69.68;99657.73;112262;1192;73950;-23
2021/09/27 07:31:32;;;;;;;1.90;1.10;;;;;;;11.44;69.52;99653.90;112234;1193;72910;-23
2021/09/27 07:34:02;;;;;;;1.40;1.10;;;;;;;11.57;68.06;99654.82;112254;1192;71017;-23
2021/09/27 07:36:31;;;;;;;3.40;1.50;;;;;;;11.68;67.60;99656.22;112368;1193;60838;-23
2021/09/27 07:39:02;;;;;;;1.80;1.10;;;;;;;11.85;67.13;99659.80;112179;1177;60829;-24
2021/09/27 07:41:31;;;;;;;3.60;1.00;;;;;;;12.00;66.45;99655.01;112130;1193;73394;-22
2021/09/27 07:44:00;;;;;;;3.10;0.80;;;;;;;12.21;66.60;99658.68;112161;1192;74485;-22
2021/09/27 07:46:29;;;;;;;3.50;0.70;;;;;;;12.94;64.10;99661.59;112138;1193;73741;-22
2021/09/27 07:48:58;;;;;;;3.60;0.70;;;;;;;13.48;61.65;99656.61;112250;1193;61790;-22
2021/09/27 07:51:26;;;;;;;1.40;0.90;;;;;;;13.40;61.39;99653.13;112150;1193;60892;-22
2021/09/27 07:53:55;;;;;;;1.30;0.90;;;;;;;13.34;62.13;99663.20;112104;1193;74232;-22
2021/09/27 07:56:23;;;;;;;2.50;1.00;;;;;;;13.27;61.32;99660.81;112177;1193;74669;-22
2021/09/27 07:58:52;;;;;;;1.60;1.10;;;;;;;13.17;62.23;99664.04;112131;1193;73068;-22
2021/09/27 08:01:20;;;;;;;1.80;1.40;;;;;;;13.14;63.13;99659.82;112239;1192;60813;-22
2021/09/27 08:03:48;;;;;;;5.50;1.30;;;;;;;13.18;61.74;99659.80;112228;1193;60856;-22
2021/09/27 08:06:17;;;;;;;1.70;1.10;;;;;;;13.12;61.74;99663.98;112257;1192;74184;-22
2021/09/27 08:08:45;;;;;;;2.00;0.90;;;;;;;13.18;61.32;99663.67;112222;1193;74702;-22
2021/09/27 08:11:13;;;;;;;1.90;1.40;;;;;;;13.22;62.24;99666.63;112249;1192;73475;-22
2021/09/27 08:14:01;;;;;;;1.80;1.20;;;;;;;13.11;61.80;99666.44;112183;1192;62068;-22
2021/09/27 08:16:31;;;;;;;2.60;1.10;;;;;;;13.25;61.27;99662.87;112271;1192;60812;-22
2021/09/27 08:18:59;;;;;;;3.30;1.40;;;;;;;13.28;60.94;99663.37;112158;1193;74759;-22
2021/09/27 08:21:28;;;;;;;2.00;1.20;;;;;;;13.43;60.42;99667.88;112200;1192;75669;-22
2021/09/27 08:23:56;;;;;;;5.40;1.30;;;;;;;13.55;59.52;99665.02;112224;1192;73009;-21
2021/09/27 08:26:24;;;;;;;3.30;1.20;;;;;;;13.64;58.10;99667.20;112251;1192;60872;-23
2021/09/27 08:28:54;;;;;;;2.10;1.50;;;;;;;13.49;57.91;99662.71;112278;1192;60842;-22
2021/09/27 08:31:23;;;;;;;1.60;1.00;;;;;;;13.72;58.85;99665.27;112255;1193;75314;-22
2021/09/27 08:33:52;;;;;;;1.30;0.90;;;;;;;13.97;57.75;99661.81;112309;1193;76216;-21
2021/09/27 08:36:23;;;;;;;3.30;1.20;;;;;;;14.16;56.85;99658.64;112145;1192;71330;-21
2021/09/27 08:38:51;;;;;;;2.70;1.30;;;;;;;14.27;55.78;99661.11;112157;1193;60813;-24
2021/09/27 08:41:31;;;;;;;2.00;1.20;;;;;;;14.59;56.12;99655.95;112253;1186;60886;-21
2021/09/27 08:44:06;;;;;;;1.90;0.90;;;;;;;14.87;56.18;99657.71;112138;1193;75246;-24
2021/09/27 08:46:41;;;;;;;3.60;1.10;;;;;;;14.68;53.22;99658.23;112279;1192;75649;-21
2021/09/27 08:49:15;;;;;;;2.20;1.00;;;;;;;14.48;55.04;99657.60;112163;1193;74054;-22
2021/09/27 08:51:44;;;;;;;0.90;0.80;;;;;;;13.75;56.59;99659.13;112160;1192;61443;-22
2021/09/27 08:54:21;;;;;;;3.00;0.80;;;;;;;13.90;57.33;99658.55;112120;1193;61430;-22
2021/09/27 08:57:13;;;;;;;1.60;0.80;;;;;;;13.87;57.92;99656.04;111921;1194;73899;-22
2021/09/27 08:59:59;;;;;;;4.40;0.80;;;;;;;13.66;58.77;99653.31;112248;1193;77102;-22
2021/09/27 09:02:51;;;;;;;0.90;0.80;;;;;;;13.63;58.71;99652.86;112217;1193;73131;-22
2021/09/27 09:05:55;;;;;;;1.00;0.80;;;;;;;14.19;57.72;99646.99;112099;1193;62309;-22
2021/09/27 09:09:13;;;;;;;1.80;1.10;;;;;;;14.24;56.23;99652.50;112079;1193;60915;-22
2021/09/27 09:11:54;;;;;;;2.50;1.60;;;;;;;15.02;53.32;99651.29;112228;1192;75346;-22
2021/09/27 09:14:25;;;;;;;0.50;0.50;;;;;;;15.90;50.95;99644.30;112145;1192;75375;-22
2021/09/27 09:17:04;;;;;;;1.10;0.70;;;;;;;16.16;48.01;99642.22;112045;1193;73026;-22
2021/09/27 09:19:32;;;;;;;0.80;0.70;;;;;;;16.33;46.50;99645.68;112130;1193;60991;-22
2021/09/27 09:22:04;;;;;;;3.70;1.90;;;;;;;16.46;47.04;99646.58;112186;1192;60912;-22
2021/09/27 09:24:52;;;;;;;2.50;1.30;;;;;;;15.32;49.29;99642.05;112182;1193;76201;-23
2021/09/27 09:27:41;;;;;;;3.10;1.70;;;;;;;14.36;50.99;99644.27;112122;1193;76931;-23
2021/09/27 09:30:10;;;;;;;4.60;2.00;;;;;;;14.51;52.19;99647.70;112215;1193;74208;-23
2021/09/27 09:32:38;;;;;;;4.10;2.10;;;;;;;14.41;53.02;99646.30;112112;1193;61257;-23
2021/09/27 09:35:14;;;;;;;8.90;4.90;;;;;;;13.95;53.26;99646.08;112241;1192;60857;-23
2021/09/27 09:37:58;;;;;;;2.50;1.80;;;;;;;13.45;53.68;99647.33;112136;1193;73268;-23
2021/09/27 09:40:33;;;;;;;1.60;1.00;;;;;;;13.61;53.21;99646.86;112098;1177;75808;-23
2021/09/27 09:43:04;;;;;;;14.20;3.90;;;;;;;13.54;53.44;99642.89;112096;1193;72408;-23
2021/09/27 09:45:35;;;;;;;5.20;1.10;;;;;;;13.22;53.85;99644.82;112102;1192;60783;-23
2021/09/27 09:48:25;;;;;;;2.90;1.40;;;;;;;13.74;55.02;99642.09;112218;1190;60794;-23
2021/09/27 09:51:42;;;;;;;1.30;0.80;;;;;;;14.36;51.82;99639.39;112140;1193;75059;-23
2021/09/27 09:54:38;;;;;;;5.80;3.10;;;;;;;14.94;50.27;99636.08;111897;1193;72937;-23
2021/09/27 09:57:15;;;;;;;1.30;1.00;;;;;;;15.41;49.03;99634.80;112021;1193;71930;-23
2021/09/27 10:00:09;;;;;;;0.70;0.60;;;;;;;15.55;47.73;99631.55;111920;1194;62846;-21
2021/09/27 10:03:02;;;;;;;1.80;0.80;;;;;;;15.73;47.75;99631.53;112037;1194;62992;-22
2021/09/27 10:06:00;;;;;;;0.70;0.70;;;;;;;15.45;48.02;99632.00;112089;1193;75211;-21
2021/09/27 10:08:28;;;;;;;2.70;1.20;;;;;;;15.29;48.91;99632.58;111760;1195;75700;-21
2021/09/27 10:11:01;;;;;;;1.10;0.80;;;;;;;15.17;49.12;99634.68;112021;1195;72432;-21
2021/09/27 10:13:33;;;;;;;1.30;0.80;;;;;;;14.86;48.60;99628.56;111839;1194;61431;-24
2021/09/27 10:16:05;;;;;;;2.00;0.90;;;;;;;14.78;49.57;99631.88;112089;1193;60829;-21
2021/09/27 10:18:38;;;;;;;2.40;0.60;;;;;;;14.71;48.63;99631.67;112037;1195;74827;-21
2021/09/27 10:21:17;;;;;;;6.10;3.70;;;;;;;14.56;49.40;99631.77;112020;1194;74582;-21
2021/09/27 10:24:18;;;;;;;2.50;1.10;;;;;;;14.12;50.51;99630.17;112057;1193;75391;-21
2021/09/27 10:27:19;;;;;;;1.00;0.70;;;;;;;14.72;49.20;99623.33;111918;1193;61897;-21
2021/09/27 10:29:49;;;;;;;0.60;0.50;;;;;;;15.12;46.56;99628.65;112087;1194;61019;-23
2021/09/27 10:32:47;;;;;;;0.70;0.50;;;;;;;15.85;46.47;99628.61;111953;1194;76569;-23
2021/09/27 10:35:45;;;;;;;0.70;0.60;;;;;;;16.43;45.11;99631.40;112070;1193;76000;-22
2021/09/27 10:38:53;;;;;;;1.10;1.00;;;;;;;16.22;44.93;99629.92;111762;1196;73745;-22
2021/09/27 10:41:36;;;;;;;0.70;0.60;;;;;;;16.03;45.13;99628.05;112081;1193;60995;-22
2021/09/27 10:44:15;;;;;;;1.30;1.20;;;;;;;15.72;45.12;99625.64;112025;1194;61730;-22
2021/09/27 10:46:46;;;;;;;1.90;1.50;;;;;;;16.21;44.85;99624.20;112008;1193;75281;-23
2021/09/27 10:49:26;;;;;;;0.80;0.50;;;;;;;16.58;43.90;99623.46;111838;1194;75442;-22
2021/09/27 10:52:17;;;;;;;0.70;0.60;;;;;;;16.45;43.54;99624.55;111885;1195;72970;-22
2021/09/27 10:55:10;;;;;;;1.90;0.90;;;;;;;16.19;44.85;99625.09;112044;1195;61029;-22
2021/09/27 10:57:46;;;;;;;7.40;4.00;;;;;;;14.58;48.90;99624.20;112022;1194;60963;-22
2021/09/27 11:00:39;;;;;;;1.80;0.90;;;;;;;14.80;49.09;99623.14;111855;1193;75437;-22
2021/09/27 11:03:21;;;;;;;2.20;0.50;;;;;;;14.32;49.79;99622.67;112018;1195;75648;-22
2021/09/27 11:06:00;;;;;;;2.40;2.00;;;;;;;13.98;49.97;99621.19;111863;1193;72848;-22
2021/09/27 11:08:40;;;;;;;9.50;4.40;;;;;;;14.13;50.55;99619.58;111982;1193;60895;-22
2021/09/27 11:11:18;;;;;;;5.20;1.70;;;;;;;13.77;51.41;99610.09;112062;1193;60837;-22
2021/09/27 11:13:47;;;;;;;3.70;2.00;;;;;;;14.19;50.68;99609.05;112189;1193;74136;-22
2021/09/27 11:16:35;;;;;;;6.60;4.10;;;;;;;14.65;49.37;99609.61;112149;1192;76094;-22
2021/09/27 11:19:24;;;;;;;2.10;1.10;;;;;;;14.97;48.45;99604.19;112102;1193;73829;-22
2021/09/27 11:22:20;;;;;;;1.20;0.80;;;;;;;15.28;47.28;99595.70;112192;1192;61923;-22
2021/09/27 11:25:03;;;;;;;1.00;0.60;;;;;;;14.55;50.00;99599.11;112116;1191;61512;-22
2021/09/27 11:27:34;;;;;;;1.50;0.60;;;;;;;14.75;51.36;99600.70;112042;1195;73198;-22
2021/09/27 11:30:25;;;;;;;2.00;0.60;;;;;;;15.00;50.67;99601.42;112223;1192;75613;-22
2021/09/27 11:32:55;;;;;;;2.00;0.60;;;;;;;14.64;49.33;99599.91;112078;1193;74372;-22
2021/09/27 11:35:33;;;;;;;2.30;1.80;;;;;;;14.85;49.53;99599.14;112082;1193;61523;-22
2021/09/27 11:38:08;;;;;;;0.50;0.50;;;;;;;14.37;50.22;99597.76;112090;1177;61833;-22
2021/09/27 11:40:38;;;;;;;0.80;0.50;;;;;;;13.88;50.92;99596.39;112161;1193;75024;-21
2021/09/27 11:43:15;;;;;;;22.00;7.30;;;;;;;13.83;52.01;99598.02;112123;1193;75585;-22
2021/09/27 11:45:47;;;;;;;24.80;9.60;;;;;;;13.99;51.10;99597.19;112269;1193;71760;-23
2021/09/27 11:48:19;;;;;;;14.50;8.10;;;;;;;13.85;50.68;99595.92;112293;1191;60792;-23
2021/09/27 11:51:01;;;;;;;7.00;3.10;;;;;;;14.07;50.60;99594.92;112471;1191;60796;-23
2021/09/27 11:53:42;;;;;;;14.70;6.80;;;;;;;14.13;49.45;99591.48;112418;1192;75184;-23
2021/09/27 11:56:25;;;;;;;11.70;5.20;;;;;;;14.46;48.77;99592.41;112514;1191;77479;-23
2021/09/27 11:59:12;;;;;;;2.10;1.10;;;;;;;15.09;49.34;99587.70;112466;1192;73932;-23
2021/09/27 12:01:51;;;;;;;1.60;0.90;;;;;;;15.32;46.95;99588.20;112403;1192;60829;-22
2021/09/27 12:04:41;;;;;;;2.90;1.40;;;;;;;15.48;47.10;99590.05;112451;1191;60805;-22
2021/09/27 12:07:43;;;;;;;0.80;0.60;;;;;;;15.51;46.84;99589.23;112470;1192;76254;-22
2021/09/27 12:10:16;;;;;;;8.40;3.60;;;;;;;15.62;44.81;99588.39;112304;1192;75609;-22
2021/09/27 12:13:17;;;;;;;2.80;1.50;;;;;;;14.88;46.43;99585.04;112189;1193;73946;-22
2021/09/27 12:16:07;;;;;;;0.90;0.70;;;;;;;15.80;45.23;99582.59;112511;1193;60828;-23
2021/09/27 12:18:44;;;;;;;1.00;0.60;;;;;;;15.90;45.64;99578.26;112274;1192;61638;-22
2021/09/27 12:21:37;;;;;;;0.90;0.60;;;;;;;15.62;45.66;99582.49;112334;1192;76429;-22
2021/09/27 12:24:09;;;;;;;0.90;0.60;;;;;;;16.30;44.62;99582.66;112160;1193;74662;-22
2021/09/27 12:26:44;;;;;;;1.00;0.60;;;;;;;16.60;43.90;99584.90;112194;1193;74412;-22
2021/09/27 12:29:26;;;;;;;2.10;0.50;;;;;;;16.81;43.28;99581.75;112433;1193;60838;-22
2021/09/27 12:32:06;;;;;;;1.00;0.70;;;;;;;16.87;42.63;99581.59;112413;1191;61244;-22
2021/09/27 12:34:38;;;;;;;2.80;0.80;;;;;;;16.85;43.02;99574.52;112364;1193;74193;-22